
Distance (Route):
Temperature : -25.3°C
Humidity : 24.5%
Pressure : 398.6hPa| Receiver | Date | Latitude | Longitude | Direction | Speed | Altitude | Climb | Temperature | Humidity | Pressure | Voltage | Killtimer | Uptime | BKT | XDATA |
|---|---|---|---|---|---|---|---|---|---|---|---|---|---|---|---|
| GYPAP8-17 | 2026-09-03 13:07:34 | 45.90750 | 20.73538 | 136° | 46km/h | 7504m | -12.4m/s | -25.3°C | 24.5% | 398.6hPa | 2.6V | 00:00:00 | 00:00:00 | 00:00:00 | |
| GYPAP8-17 | 2026-09-03 13:01:36 | 45.97425 | 20.68401 | 139° | 60km/h | 12953m | -15.5m/s | -52.9°C | 2.0% | 176.6hPa | 2.6V | 00:00:00 | 00:00:00 | 00:00:00 | |
| GYPAP8-17 | 2026-09-03 12:59:24 | 45.98521 | 20.60963 | 0° | 0km/h | 28329m | 0.0m/s | -55.8°C | 1.6% | 118.3hPa | 2.6V | 00:00:00 | 00:00:00 | 00:00:00 | |
| GYPAP8-17 | 2026-09-03 12:59:03 | 45.98521 | 20.60963 | 0° | 0km/h | 28329m | 0.0m/s | -54.1°C | 1.3% | 110.0hPa | 2.6V | 00:00:00 | 00:00:00 | 00:00:00 | |
| LZ4TU-5 | 2026-09-03 12:58:26 | 45.98521 | 20.60963 | 0° | 0km/h | 28329m | 0.0m/s | 0°C | 0% | 96.2hPa | 2.6V | 00:00:00 | 00:00:00 | 00:00:00 | |
| LZ4TU-5 | 2026-09-03 12:58:21 | 45.98521 | 20.60963 | 0° | 0km/h | 28329m | 0.0m/s | 0°C | 0% | 0hPa | 2.6V | 00:00:00 | 00:00:00 | 00:00:00 | |
| GYPAP8-17 | 2026-09-03 12:57:37 | 45.98521 | 20.60963 | 0° | 0km/h | 28329m | 0.0m/s | -55.9°C | 1.3% | 81.0hPa | 2.6V | 00:00:00 | 00:00:00 | 00:00:00 | |
| GYPAP8-17 | 2026-09-03 12:55:31 | 45.98521 | 20.60963 | 0° | 0km/h | 28329m | 0.0m/s | -53.8°C | 1.1% | 50.0hPa | 2.6V | 00:00:00 | 00:00:00 | 00:00:00 | |
| S52SK | 2026-09-03 12:52:48 | 45.98521 | 20.60963 | 0° | 0km/h | 28329m | 0.0m/s | 0°C | 0% | 0hPa | 2.6V | 00:00:00 | 00:00:00 | 00:00:00 | |
| S52SK | 2026-09-03 12:52:40 | 45.98521 | 20.60963 | 0° | 0km/h | 28329m | 0.0m/s | 0°C | 0% | 0hPa | 2.6V | 00:00:00 | 00:00:00 | 00:00:00 | |
| GYPAP8-17 | 2026-09-03 12:45:21 | 45.98521 | 20.60963 | 0° | 0km/h | 28329m | 0.0m/s | -41.8°C | 0.6% | 10.1hPa | 2.6V | 00:00:00 | 00:00:00 | 00:00:00 | |
| GYPAP8-17 | 2026-09-03 12:44:15 | 45.98521 | 20.60963 | 0° | 0km/h | 28329m | 0.0m/s | -41.0°C | 0.5% | 10.9hPa | 2.6V | 00:00:00 | 00:00:00 | 00:00:00 | |
| GYPAP8-17 | 2026-09-03 12:42:08 | 45.98521 | 20.60963 | 0° | 0km/h | 28329m | 0.0m/s | -41.4°C | 0.5% | 12.4hPa | 2.6V | 00:00:00 | 00:00:00 | 00:00:00 | |
| LZ4TU-5 | 2026-09-03 12:39:31 | 45.98521 | 20.60963 | 0° | 0km/h | 28329m | 0.0m/s | 0°C | 0% | 0hPa | 2.6V | 00:00:00 | 00:00:00 | 00:00:00 | |
| GYPAP8-17 | 2026-09-03 12:38:33 | 45.98521 | 20.60963 | 0° | 0km/h | 28329m | 0.0m/s | -43.3°C | 0.6% | 15.5hPa | 2.6V | 00:00:00 | 00:00:00 | 00:00:00 | |
| GYPAP8-17 | 2026-09-03 12:32:14 | 45.98418 | 20.58879 | 18° | 20km/h | 26139m | 6.8m/s | -47.9°C | 0.8% | 22.6hPa | 2.6V | 00:00:00 | 00:00:00 | 00:00:00 | |
| 9A1FER-10 | 2026-09-03 12:19:26 | 45.98019 | 20.58546 | 150° | 22km/h | 21449m | 3.8m/s | -52.6°C | 3.7% | 46.6hPa | 2.6V | 00:00:00 | 01:30:06 | 00:00:00 | |
| 9A1FER-10 | 2026-09-03 12:19:11 | 45.98075 | 20.58466 | 126° | 22km/h | 21364m | 6.3m/s | -52.9°C | 3.8% | 47.2hPa | 2.6V | 00:00:00 | 01:29:51 | 08:30:00 | |
| 9A1FER-10 | 2026-09-03 12:18:56 | 45.98107 | 20.58364 | 100° | 18km/h | 21279m | 3.9m/s | -52.9°C | 3.6% | 47.9hPa | 2.7V | 00:00:00 | 01:29:36 | 00:00:00 | |
| 9A1FER-10 | 2026-09-03 12:18:41 | 45.98113 | 20.58275 | 59° | 15km/h | 21197m | 5.9m/s | -53.1°C | 3.7% | 48.5hPa | 2.7V | 00:00:00 | 01:29:21 | 00:00:00 | |
| 9A1FER-10 | 2026-09-03 12:18:26 | 45.98114 | 20.58201 | 77° | 13km/h | 21116m | 5.6m/s | -54.0°C | 3.9% | 49.1hPa | 2.7V | 00:00:00 | 01:29:06 | 00:00:00 | |
| 9A1FER-10 | 2026-09-03 12:18:11 | 45.98095 | 20.58143 | 78° | 16km/h | 21033m | 5.5m/s | -54.1°C | 3.9% | 49.7hPa | 2.6V | 00:00:00 | 01:28:51 | 00:00:00 | |
| 9A1FER-10 | 2026-09-03 12:17:56 | 45.98106 | 20.58060 | 124° | 16km/h | 20953m | 5.1m/s | -54.3°C | 4.0% | 50.4hPa | 2.6V | 00:00:00 | 01:28:36 | 00:00:00 | |
| 9A1FER-10 | 2026-09-03 12:17:41 | 45.98140 | 20.57987 | 140° | 24km/h | 20870m | 5.5m/s | -54.4°C | 4.1% | 51.0hPa | 2.6V | 00:00:00 | 01:28:21 | 00:00:00 | |
| 9A1FER-10 | 2026-09-03 12:17:26 | 45.98184 | 20.57881 | 131° | 26km/h | 20787m | 5.2m/s | -54.1°C | 3.9% | 51.7hPa | 2.6V | 00:00:00 | 01:28:06 | 00:00:00 | |
| 9A1FER-10 | 2026-09-03 12:17:11 | 45.98227 | 20.57763 | 112° | 20km/h | 20705m | 5.9m/s | -54.3°C | 3.8% | 52.4hPa | 2.6V | 00:00:00 | 01:27:51 | 00:00:00 | |
| 9A1FER-10 | 2026-09-03 12:16:56 | 45.98228 | 20.57660 | 61° | 20km/h | 20622m | 5.6m/s | -54.8°C | 4.1% | 53.1hPa | 2.6V | 00:00:00 | 01:27:36 | 08:30:00 | |
| 9A1FER-10 | 2026-09-03 12:16:41 | 45.98225 | 20.57555 | 92° | 26km/h | 20537m | 5.2m/s | -54.5°C | 3.9% | 53.8hPa | 2.7V | 00:00:00 | 01:27:21 | 00:00:00 | |
| 9A1FER-10 | 2026-09-03 12:16:26 | 45.98262 | 20.57429 | 111° | 24km/h | 20454m | 7.0m/s | -54.6°C | 4.0% | 54.5hPa | 2.7V | 00:00:00 | 01:27:06 | 00:00:00 | |
| 9A1FER-10 | 2026-09-03 12:16:11 | 45.98297 | 20.57318 | 111° | 13km/h | 20370m | 6.7m/s | -54.6°C | 3.9% | 55.2hPa | 2.7V | 00:00:00 | 01:26:51 | 00:00:00 | |
| 9A1FER-10 | 2026-09-03 12:15:56 | 45.98304 | 20.57248 | 63° | 11km/h | 20285m | 4.7m/s | -55.0°C | 4.0% | 55.9hPa | 2.7V | 00:00:00 | 01:26:36 | 00:00:00 | |
| 9A1FER-10 | 2026-09-03 12:15:41 | 45.98299 | 20.57190 | 54° | 16km/h | 20198m | 5.3m/s | -55.3°C | 4.1% | 56.7hPa | 2.7V | 00:00:00 | 01:26:21 | 00:00:00 | |
| 9A1FER-10 | 2026-09-03 12:15:26 | 45.98295 | 20.57099 | 85° | 26km/h | 20111m | 6.7m/s | -55.6°C | 4.3% | 57.5hPa | 2.7V | 00:00:00 | 01:26:06 | 00:00:00 | |
| 9A1FER-10 | 2026-09-03 12:15:11 | 45.98284 | 20.56965 | 64° | 29km/h | 20024m | 6.1m/s | -55.4°C | 4.2% | 58.2hPa | 2.6V | 00:00:00 | 01:25:51 | 00:00:00 | |
| 9A1FER-10 | 2026-09-03 12:14:56 | 45.98243 | 20.56817 | 60° | 31km/h | 19942m | 5.4m/s | -55.0°C | 4.1% | 59.0hPa | 2.6V | 00:00:00 | 01:25:36 | 00:00:00 | |
| 9A1FER-10 | 2026-09-03 12:14:41 | 45.98188 | 20.56664 | 55° | 31km/h | 19857m | 7.2m/s | -55.1°C | 4.0% | 59.8hPa | 2.6V | 00:00:00 | 01:25:21 | 08:30:00 | |
| 9A1FER-10 | 2026-09-03 12:14:26 | 45.98116 | 20.56529 | 55° | 24km/h | 19768m | 7.2m/s | -55.5°C | 4.2% | 60.7hPa | 2.6V | 00:00:00 | 01:25:06 | 00:00:00 | |
| LZ4TU-5 | 2026-09-03 12:13:14 | 45.98035 | 20.56274 | 174° | 13km/h | 19357m | 5.1m/s | 0°C | 0% | 0hPa | 2.6V | 00:00:00 | 00:00:00 | 00:00:00 | |
| 9A1FER-10 | 2026-09-03 12:13:11 | 45.98046 | 20.56267 | 135° | 7km/h | 19337m | 4.4m/s | -53.9°C | 3.8% | 64.9hPa | 2.6V | 00:00:00 | 01:23:51 | 00:00:00 | |
| 9A1FER-10 | 2026-09-03 12:12:54 | 45.98063 | 20.56256 | 188° | 5km/h | 19243m | 5.1m/s | -53.9°C | 4.0% | 65.9hPa | 2.6V | 00:00:00 | 01:23:34 | 00:00:00 | |
| 9A1FER-10 | 2026-09-03 12:12:39 | 45.98075 | 20.56229 | 139° | 15km/h | 19161m | 5.8m/s | -53.6°C | 3.8% | 66.7hPa | 0V | 00:00:00 | 01:23:19 | 00:00:00 | |
| 9A1FER-10 | 2026-09-03 12:12:24 | 45.98113 | 20.56188 | 121° | 20km/h | 19081m | 5.3m/s | 0°C | 0% | 0hPa | 0V | 00:00:00 | 01:23:04 | 00:00:00 | |
| 9A1FER-10 | 2026-09-03 12:11:54 | 45.98167 | 20.55960 | 103° | 27km/h | 18919m | 4.7m/s | 0°C | 0% | 0hPa | 0V | 00:00:00 | 01:22:34 | 00:00:00 | |
| 9A1FER-10 | 2026-09-03 12:11:39 | 45.98162 | 20.55807 | 79° | 29km/h | 18838m | 6.0m/s | 0°C | 0% | 0hPa | 0V | 00:00:00 | 01:22:19 | 00:00:00 | |
| 9A1FER-10 | 2026-09-03 12:11:24 | 45.98124 | 20.55656 | 62° | 26km/h | 18757m | 5.8m/s | 0°C | 0% | 0hPa | 0V | 00:00:00 | 01:22:04 | 00:00:00 | |
| GYPAP8-17 | 2026-09-03 12:10:05 | 45.98088 | 20.55166 | 129° | 31km/h | 18333m | 6.7m/s | -53.5°C | 1.2% | 75.9hPa | 0V | 00:00:00 | 00:00:00 | 00:00:00 | |
| LZ4TU-5 | 2026-09-03 12:09:54 | 45.98143 | 20.55056 | 123° | 29km/h | 18271m | 5.3m/s | 0°C | 0% | 0hPa | 0V | 00:00:00 | 00:00:00 | 00:00:00 | |
| GYPAP8-17 | 2026-09-03 12:08:55 | 45.98364 | 20.54334 | 109° | 44km/h | 17962m | 3.7m/s | -55.7°C | 1.4% | 80.5hPa | 0V | 00:00:00 | 00:00:00 | 00:00:00 | |
| OM5KV | 2026-09-03 11:59:30 | 46.00134 | 20.46138 | 98° | 40km/h | 15076m | 3.4m/s | -56.2°C | 2.2% | 126.5hPa | 0V | 00:00:00 | 00:00:00 | 00:00:00 | |
| OM5KV | 2026-09-03 11:59:25 | 46.00143 | 20.46077 | 103° | 33km/h | 15050m | 5.4m/s | -56.2°C | 2.1% | 127.0hPa | 0V | 00:00:00 | 00:00:00 | 00:00:00 | |
| OM5KV | 2026-09-03 11:59:22 | 46.00145 | 20.46051 | 98° | 40km/h | 15040m | 4.4m/s | -56.1°C | 2.1% | 127.2hPa | 0V | 00:00:00 | 00:00:00 | 00:00:00 | |
| OM5KV | 2026-09-03 11:59:18 | 46.00159 | 20.45979 | 122° | 40km/h | 15013m | 5.6m/s | -56.0°C | 2.1% | 127.8hPa | 0V | 00:00:00 | 00:00:00 | 00:00:00 | |
| OM5KV | 2026-09-03 11:59:10 | 46.00196 | 20.45891 | 104° | 38km/h | 14969m | 5.3m/s | -55.7°C | 2.1% | 128.6hPa | 0V | 00:00:00 | 00:00:00 | 00:00:00 | |
| OM5KV | 2026-09-03 11:59:05 | 46.00219 | 20.45827 | 138° | 47km/h | 14939m | 5.3m/s | -55.5°C | 2.0% | 129.3hPa | 0V | 00:00:00 | 00:00:00 | 00:00:00 | |
| OM5KV | 2026-09-03 11:59:04 | 46.00219 | 20.45827 | 138° | 47km/h | 14939m | 5.3m/s | -55.5°C | 2.0% | 129.3hPa | 0V | 00:00:00 | 00:00:00 | 00:00:00 | |
| OM5KV | 2026-09-03 11:58:54 | 46.00290 | 20.45704 | 127° | 38km/h | 14876m | 5.5m/s | -55.4°C | 2.1% | 130.6hPa | 0V | 00:00:00 | 00:00:00 | 00:00:00 | |
| OM5KV | 2026-09-03 11:58:48 | 46.00346 | 20.45629 | 138° | 58km/h | 14832m | 8.5m/s | -54.9°C | 2.1% | 131.4hPa | 0V | 00:00:00 | 00:00:00 | 00:00:00 | |
| OM5KV | 2026-09-03 11:58:43 | 46.00396 | 20.45571 | 155° | 46km/h | 14797m | 7.4m/s | -55.1°C | 2.1% | 132.2hPa | 0V | 00:00:00 | 00:00:00 | 00:00:00 | |
| OM5KV | 2026-09-03 11:58:26 | 46.00566 | 20.45310 | 132° | 71km/h | 14691m | 6.5m/s | -54.4°C | 2.1% | 134.4hPa | 0V | 00:00:00 | 00:00:00 | 00:00:00 | |
| OM5KV | 2026-09-03 11:58:25 | 46.00577 | 20.45290 | 132° | 69km/h | 14686m | 3.6m/s | -54.4°C | 2.0% | 134.5hPa | 0V | 00:00:00 | 00:00:00 | 00:00:00 | |
| OM5KV | 2026-09-03 11:58:16 | 46.00680 | 20.45130 | 133° | 75km/h | 14639m | 5.5m/s | -54.3°C | 2.0% | 135.5hPa | 0V | 00:00:00 | 00:00:00 | 00:00:00 | |
| OM5KV | 2026-09-03 11:58:15 | 46.00693 | 20.45109 | 134° | 77km/h | 14633m | 6.8m/s | -54.3°C | 2.0% | 135.6hPa | 0V | 00:00:00 | 00:00:00 | 00:00:00 | |
| OM5KV | 2026-09-03 11:58:07 | 46.00809 | 20.44918 | 131° | 75km/h | 14587m | 3.9m/s | -54.9°C | 0% | 136.6hPa | 0V | 00:00:00 | 00:00:00 | 00:00:00 | |
| OM5KV | 2026-09-03 11:58:05 | 46.00834 | 20.44877 | 134° | 75km/h | 14576m | 4.9m/s | -55.2°C | 2.1% | 136.8hPa | 0V | 00:00:00 | 00:00:00 | 00:00:00 | |
| OM5KV | 2026-09-03 11:57:52 | 46.00997 | 20.44596 | 128° | 88km/h | 14519m | 4.4m/s | -55.3°C | 0% | 0hPa | 0V | 00:00:00 | 00:00:00 | 00:00:00 | |
| OM5KV | 2026-09-03 11:57:49 | 46.01048 | 20.44494 | 127° | 82km/h | 14499m | 5.4m/s | -55.1°C | 0% | 0hPa | 0V | 00:00:00 | 00:00:00 | 00:00:00 | |
| OM5KV | 2026-09-03 11:57:48 | 46.01048 | 20.44494 | 127° | 82km/h | 14499m | 5.4m/s | -55.1°C | 0% | 0hPa | 0V | 00:00:00 | 00:00:00 | 00:00:00 | |
| OM5KV | 2026-09-03 11:57:47 | 46.01060 | 20.44470 | 126° | 80km/h | 14495m | 3.5m/s | -55.0°C | 0% | 0hPa | 0V | 00:00:00 | 00:00:00 | 00:00:00 | |
| OM5KV | 2026-09-03 11:57:43 | 46.01114 | 20.44355 | 126° | 75km/h | 14469m | 4.8m/s | -54.9°C | 0% | 0hPa | 0V | 00:00:00 | 00:00:00 | 00:00:00 | |
| OM5KV | 2026-09-03 11:57:41 | 46.01124 | 20.44333 | 126° | 77km/h | 14464m | 5.5m/s | -54.9°C | 0% | 0hPa | 0V | 00:00:00 | 00:00:00 | 00:00:00 | |
| OM5KV | 2026-09-03 11:57:36 | 46.01187 | 20.44214 | 129° | 86km/h | 14439m | 5.1m/s | -54.8°C | 0% | 0hPa | 0V | 00:00:00 | 00:00:00 | 00:00:00 | |
| OM5KV | 2026-09-03 11:57:30 | 46.01268 | 20.44045 | 126° | 78km/h | 14403m | 5.0m/s | -55.0°C | 0% | 0hPa | 0V | 00:00:00 | 00:00:00 | 00:00:00 | |
| OM5KV | 2026-09-03 11:57:26 | 46.01316 | 20.43951 | 125° | 82km/h | 14382m | 4.8m/s | 0°C | 0% | 0hPa | 0V | 00:00:00 | 00:00:00 | 00:00:00 | |
| OM5KV | 2026-09-03 11:57:15 | 46.01419 | 20.43713 | 126° | 78km/h | 14331m | 4.3m/s | 0°C | 0% | 0hPa | 0V | 00:00:00 | 00:00:00 | 00:00:00 | |
| OM5KV | 2026-09-03 11:57:12 | 46.01453 | 20.43645 | 125° | 73km/h | 14315m | 5.5m/s | 0°C | 0% | 0hPa | 0V | 00:00:00 | 00:00:00 | 00:00:00 | |
| OM5KV | 2026-09-03 11:57:11 | 46.01464 | 20.43623 | 123° | 73km/h | 14309m | 6.0m/s | 0°C | 0% | 0hPa | 0V | 00:00:00 | 00:00:00 | 00:00:00 | |
| OM5KV | 2026-09-03 11:56:31 | 46.01830 | 20.42786 | 120° | 80km/h | 14065m | 5.7m/s | 0°C | 0% | 0hPa | 0V | 00:00:00 | 00:00:00 | 00:00:00 | |
| OM5KV | 2026-09-03 11:56:30 | 46.01839 | 20.42760 | 120° | 80km/h | 14058m | 7.9m/s | 0°C | 0% | 0hPa | 0V | 00:00:00 | 00:00:00 | 00:00:00 | |
| LZ4TU-5 | 2026-09-03 11:53:33 | 46.03464 | 20.39328 | 124° | 66km/h | 13092m | 6.3m/s | 0°C | 0% | 0hPa | 0V | 00:00:00 | 00:00:00 | 00:00:00 | |
| LZ4TU-5 | 2026-09-03 11:53:28 | 46.03516 | 20.39233 | 132° | 69km/h | 13066m | 4.2m/s | 0°C | 0% | 0hPa | 0V | 00:00:00 | 00:00:00 | 00:00:00 | |
| GYPAP8-17 | 2026-09-03 11:52:21 | 46.04462 | 20.37879 | 136° | 93km/h | 12708m | 3.5m/s | -55.7°C | 9.3% | 182.9hPa | 0V | 00:00:00 | 00:00:00 | 00:00:00 | |
| GYPAP8-17 | 2026-09-03 11:49:50 | 46.07338 | 20.34512 | 141° | 111km/h | 11890m | 7.1m/s | -56.8°C | 37.4% | 208.3hPa | 0V | 00:00:00 | 00:00:00 | 00:00:00 | |
| GYPAP8-17 | 2026-09-03 11:48:33 | 46.08805 | 20.32459 | 144° | 95km/h | 11421m | 7.0m/s | -52.8°C | 26.1% | 224.3hPa | 0V | 00:00:00 | 00:00:00 | 00:00:00 | |
| GYPAP8-17 | 2026-09-03 11:37:49 | 46.18812 | 20.21927 | 153° | 40km/h | 7476m | 6.9m/s | 0°C | 0% | 0hPa | 0V | 00:00:00 | 00:00:00 | 00:00:00 |